aviador You're here:

KHKS Decoded Metar

JACKSON/HAWKINS in MS, USA
Report Time2018-05-23 15:53:00
UTC Time2018-05-23 16:27:44
Flight Rules vfr VFR
WindVRB at 05 kt
Visibility9999 m
Phenomena:N/A
Clouds:Few 120 Hf
Expected CloudBase > 2,800 ft AGL from Temp-Dew spread
CeilingNone
Temp30°C (ISA +16)
Dew Point23°C (66% RH)
Heat Index34.1°C
QNH1020 hPa
Density Alt2,290 ft
Elevation354 ft
Report Wrong Elevation
Raw Report
KHKS 231553Z VRB05KT 10SM FEW120 30/23 A3011 RMK AO2 SLP186
T03000228=

Extra information for KHKS:More info

Metar Taf Metar & Taf Last 4 Metars F.Rules Stats Wind Profile Meteogram Temp Stats Airport Information Weather charts Add Link Nearby VenuesMetar ALERT Operation Metar Decoded Social comments

AIRNAV info for KHKS